sensor_id;sensor_type;location;lat;lon;timestamp;pressure;altitude;pressure_sealevel;temperature;humidity
9139;BME280;4604;48.616;9.548;2023-09-19T00:02:17;96582.97;;;18.38;83.99
9139;BME280;4604;48.616;9.548;2023-09-19T00:04:43;96569.59;;;18.38;85.33
9139;BME280;4604;48.616;9.548;2023-09-19T00:07:10;96580.91;;;18.34;86.38
9139;BME280;4604;48.616;9.548;2023-09-19T00:09:37;96572.22;;;18.25;87.43
9139;BME280;4604;48.616;9.548;2023-09-19T00:12:05;96560.31;;;18.28;88.27
9139;BME280;4604;48.616;9.548;2023-09-19T00:14:31;96568.31;;;18.28;89.54
9139;BME280;4604;48.616;9.548;2023-09-19T00:17:02;96575.06;;;18.24;90.75
9139;BME280;4604;48.616;9.548;2023-09-19T00:19:33;96559.78;;;18.11;91.33
9139;BME280;4604;48.616;9.548;2023-09-19T00:22:00;96573.44;;;18.23;91.05
9139;BME280;4604;48.616;9.548;2023-09-19T00:24:27;96567.56;;;18.06;92.11
9139;BME280;4604;48.616;9.548;2023-09-19T00:26:54;96574.16;;;18.10;93.14
9139;BME280;4604;48.616;9.548;2023-09-19T00:29:21;96576.44;;;18.13;92.94
9139;BME280;4604;48.616;9.548;2023-09-19T00:31:48;96570.00;;;18.01;92.86
9139;BME280;4604;48.616;9.548;2023-09-19T00:34:16;96572.09;;;18.05;89.70
9139;BME280;4604;48.616;9.548;2023-09-19T00:36:43;96569.28;;;17.85;87.44
9139;BME280;4604;48.616;9.548;2023-09-19T00:39:10;96579.31;;;17.83;87.59
9139;BME280;4604;48.616;9.548;2023-09-19T00:41:37;96580.22;;;17.97;86.15
9139;BME280;4604;48.616;9.548;2023-09-19T00:44:03;96587.81;;;17.93;83.69
9139;BME280;4604;48.616;9.548;2023-09-19T00:46:31;96567.34;;;17.79;84.03
9139;BME280;4604;48.616;9.548;2023-09-19T00:48:58;96586.09;;;17.86;84.21
9139;BME280;4604;48.616;9.548;2023-09-19T00:51:27;96585.53;;;17.90;83.71
9139;BME280;4604;48.616;9.548;2023-09-19T00:53:55;96592.09;;;17.88;82.84
9139;BME280;4604;48.616;9.548;2023-09-19T00:56:22;96587.31;;;17.83;84.29
9139;BME280;4604;48.616;9.548;2023-09-19T00:58:48;96564.34;;;17.67;84.10
9139;BME280;4604;48.616;9.548;2023-09-19T01:01:15;96604.16;;;17.84;84.74
9139;BME280;4604;48.616;9.548;2023-09-19T01:03:44;96591.28;;;17.72;86.46
9139;BME280;4604;48.616;9.548;2023-09-19T01:06:11;96583.44;;;17.64;87.47
9139;BME280;4604;48.616;9.548;2023-09-19T01:08:39;96595.63;;;17.73;85.40
9139;BME280;4604;48.616;9.548;2023-09-19T01:11:11;96591.00;;;17.61;87.05
9139;BME280;4604;48.616;9.548;2023-09-19T01:13:51;96595.47;;;17.53;88.16
9139;BME280;4604;48.616;9.548;2023-09-19T01:16:35;96600.66;;;17.62;86.75
9139;BME280;4604;48.616;9.548;2023-09-19T01:19:19;96599.25;;;17.66;87.60
9139;BME280;4604;48.616;9.548;2023-09-19T01:21:57;96600.41;;;17.78;88.24
9139;BME280;4604;48.616;9.548;2023-09-19T01:25:00;96597.81;;;17.63;88.56
9139;BME280;4604;48.616;9.548;2023-09-19T01:27:47;96582.06;;;17.47;87.66
9139;BME280;4604;48.616;9.548;2023-09-19T01:30:24;96580.19;;;17.47;88.07
9139;BME280;4604;48.616;9.548;2023-09-19T01:32:55;96602.50;;;17.61;88.82
9139;BME280;4604;48.616;9.548;2023-09-19T01:35:22;96593.84;;;17.59;87.78
9139;BME280;4604;48.616;9.548;2023-09-19T01:37:49;96602.50;;;17.61;87.00
9139;BME280;4604;48.616;9.548;2023-09-19T01:40:18;96597.28;;;17.74;85.61
9139;BME280;4604;48.616;9.548;2023-09-19T01:42:52;96586.03;;;17.58;86.54
9139;BME280;4604;48.616;9.548;2023-09-19T01:45:29;96609.38;;;17.70;86.78
9139;BME280;4604;48.616;9.548;2023-09-19T01:48:07;96607.53;;;17.71;86.97
9139;BME280;4604;48.616;9.548;2023-09-19T01:50:44;96595.88;;;17.79;86.47
9139;BME280;4604;48.616;9.548;2023-09-19T01:53:26;96600.50;;;17.70;87.04
9139;BME280;4604;48.616;9.548;2023-09-19T01:55:57;96611.91;;;17.79;86.99
9139;BME280;4604;48.616;9.548;2023-09-19T01:58:29;96598.94;;;17.75;87.26
9139;BME280;4604;48.616;9.548;2023-09-19T02:01:01;96624.31;;;17.86;86.89
9139;BME280;4604;48.616;9.548;2023-09-19T02:03:29;96624.88;;;17.82;86.66
9139;BME280;4604;48.616;9.548;2023-09-19T02:05:57;96632.78;;;17.90;86.54
9139;BME280;4604;48.616;9.548;2023-09-19T02:08:23;96634.34;;;17.84;87.31
9139;BME280;4604;48.616;9.548;2023-09-19T02:10:50;96641.72;;;17.82;87.71
9139;BME280;4604;48.616;9.548;2023-09-19T02:13:19;96638.44;;;17.80;88.32
9139;BME280;4604;48.616;9.548;2023-09-19T02:15:46;96644.31;;;17.97;89.20
9139;BME280;4604;48.616;9.548;2023-09-19T02:18:14;96649.97;;;17.87;90.29
9139;BME280;4604;48.616;9.548;2023-09-19T02:20:41;96638.09;;;17.68;90.77
9139;BME280;4604;48.616;9.548;2023-09-19T02:23:08;96645.13;;;17.76;90.68
9139;BME280;4604;48.616;9.548;2023-09-19T02:25:35;96634.97;;;17.65;91.66
9139;BME280;4604;48.616;9.548;2023-09-19T02:28:03;96643.94;;;17.79;91.94
9139;BME280;4604;48.616;9.548;2023-09-19T02:30:31;96640.25;;;17.58;92.40
9139;BME280;4604;48.616;9.548;2023-09-19T02:32:57;96658.84;;;17.51;93.24
9139;BME280;4604;48.616;9.548;2023-09-19T02:35:28;96657.97;;;17.44;94.68
9139;BME280;4604;48.616;9.548;2023-09-19T02:37:58;96663.56;;;17.49;94.40
9139;BME280;4604;48.616;9.548;2023-09-19T02:40:25;96667.03;;;17.50;93.33
9139;BME280;4604;48.616;9.548;2023-09-19T02:42:54;96656.44;;;17.57;93.41
9139;BME280;4604;48.616;9.548;2023-09-19T02:45:21;96662.16;;;17.53;94.60
9139;BME280;4604;48.616;9.548;2023-09-19T02:47:49;96647.84;;;17.40;95.09
9139;BME280;4604;48.616;9.548;2023-09-19T02:50:16;96644.53;;;17.38;95.03
9139;BME280;4604;48.616;9.548;2023-09-19T02:52:45;96662.00;;;17.40;94.81
9139;BME280;4604;48.616;9.548;2023-09-19T02:55:14;96661.19;;;17.40;95.24
9139;BME280;4604;48.616;9.548;2023-09-19T02:57:45;96667.59;;;17.45;94.52
9139;BME280;4604;48.616;9.548;2023-09-19T03:00:13;96664.50;;;17.42;94.38
9139;BME280;4604;48.616;9.548;2023-09-19T03:02:40;96667.56;;;17.39;94.48
9139;BME280;4604;48.616;9.548;2023-09-19T03:05:07;96674.72;;;17.38;95.07
9139;BME280;4604;48.616;9.548;2023-09-19T03:07:36;96666.06;;;17.36;95.01
9139;BME280;4604;48.616;9.548;2023-09-19T03:10:06;96665.84;;;17.52;94.76
9139;BME280;4604;48.616;9.548;2023-09-19T03:12:33;96673.88;;;17.38;94.24
9139;BME280;4604;48.616;9.548;2023-09-19T03:15:00;96666.22;;;17.49;93.22
9139;BME280;4604;48.616;9.548;2023-09-19T03:17:27;96681.50;;;17.41;94.46
9139;BME280;4604;48.616;9.548;2023-09-19T03:19:53;96677.03;;;17.41;94.03
9139;BME280;4604;48.616;9.548;2023-09-19T03:22:20;96652.25;;;17.47;93.78
9139;BME280;4604;48.616;9.548;2023-09-19T03:24:47;96656.50;;;17.42;93.62
9139;BME280;4604;48.616;9.548;2023-09-19T03:27:15;96671.38;;;17.51;93.49
9139;BME280;4604;48.616;9.548;2023-09-19T03:29:42;96637.31;;;17.31;93.87
9139;BME280;4604;48.616;9.548;2023-09-19T03:32:09;96669.28;;;17.46;93.28
9139;BME280;4604;48.616;9.548;2023-09-19T03:34:36;96663.69;;;17.41;92.64
9139;BME280;4604;48.616;9.548;2023-09-19T03:37:03;96654.66;;;17.42;92.65
9139;BME280;4604;48.616;9.548;2023-09-19T03:39:30;96666.22;;;17.49;92.63
9139;BME280;4604;48.616;9.548;2023-09-19T03:41:57;96644.88;;;17.49;91.51
9139;BME280;4604;48.616;9.548;2023-09-19T03:44:25;96655.41;;;17.58;91.68
9139;BME280;4604;48.616;9.548;2023-09-19T03:46:51;96671.31;;;17.66;91.52
9139;BME280;4604;48.616;9.548;2023-09-19T03:49:18;96665.91;;;17.59;90.98
9139;BME280;4604;48.616;9.548;2023-09-19T03:51:45;96661.22;;;17.61;90.52
9139;BME280;4604;48.616;9.548;2023-09-19T03:54:12;96641.72;;;17.61;90.11
9139;BME280;4604;48.616;9.548;2023-09-19T03:56:39;96660.63;;;17.81;89.66
9139;BME280;4604;48.616;9.548;2023-09-19T03:59:05;96665.13;;;17.65;90.23
9139;BME280;4604;48.616;9.548;2023-09-19T04:01:35;96668.44;;;17.67;90.28
9139;BME280;4604;48.616;9.548;2023-09-19T04:04:02;96669.88;;;17.63;90.42
9139;BME280;4604;48.616;9.548;2023-09-19T04:06:33;96660.97;;;17.56;90.96
9139;BME280;4604;48.616;9.548;2023-09-19T04:09:00;96661.53;;;17.51;91.46
9139;BME280;4604;48.616;9.548;2023-09-19T04:11:27;96673.75;;;17.61;91.21
9139;BME280;4604;48.616;9.548;2023-09-19T04:13:53;96670.28;;;17.67;90.93
9139;BME280;4604;48.616;9.548;2023-09-19T04:16:20;96664.72;;;17.62;90.39
9139;BME280;4604;48.616;9.548;2023-09-19T04:18:48;96672.97;;;17.67;91.69
9139;BME280;4604;48.616;9.548;2023-09-19T04:21:14;96660.25;;;17.69;92.31
9139;BME280;4604;48.616;9.548;2023-09-19T04:23:41;96670.69;;;17.64;92.77
9139;BME280;4604;48.616;9.548;2023-09-19T04:26:09;96667.19;;;17.63;92.45
9139;BME280;4604;48.616;9.548;2023-09-19T04:28:35;96669.00;;;17.63;92.07
9139;BME280;4604;48.616;9.548;2023-09-19T04:31:03;96687.31;;;17.44;93.58
9139;BME280;4604;48.616;9.548;2023-09-19T04:33:30;96682.75;;;17.60;92.24
9139;BME280;4604;48.616;9.548;2023-09-19T04:36:02;96674.63;;;17.46;92.79
9139;BME280;4604;48.616;9.548;2023-09-19T04:38:32;96680.84;;;17.53;93.15
9139;BME280;4604;48.616;9.548;2023-09-19T04:40:59;96685.03;;;17.41;94.97
9139;BME280;4604;48.616;9.548;2023-09-19T04:43:26;96695.88;;;17.40;96.54
9139;BME280;4604;48.616;9.548;2023-09-19T04:45:53;96688.50;;;17.42;96.89
9139;BME280;4604;48.616;9.548;2023-09-19T04:48:21;96691.81;;;17.44;95.70
9139;BME280;4604;48.616;9.548;2023-09-19T04:50:49;96695.69;;;17.26;95.08
9139;BME280;4604;48.616;9.548;2023-09-19T04:53:17;96697.34;;;17.42;94.36
9139;BME280;4604;48.616;9.548;2023-09-19T04:55:49;96684.19;;;17.41;94.48
9139;BME280;4604;48.616;9.548;2023-09-19T04:58:16;96699.63;;;17.45;94.15
9139;BME280;4604;48.616;9.548;2023-09-19T05:00:43;96698.41;;;17.48;93.72
9139;BME280;4604;48.616;9.548;2023-09-19T05:03:10;96698.81;;;17.45;94.51
9139;BME280;4604;48.616;9.548;2023-09-19T05:05:36;96702.28;;;17.45;94.44
9139;BME280;4604;48.616;9.548;2023-09-19T05:08:04;96690.91;;;17.37;94.90
9139;BME280;4604;48.616;9.548;2023-09-19T05:10:32;96682.72;;;17.38;94.59
9139;BME280;4604;48.616;9.548;2023-09-19T05:12:59;96697.06;;;17.37;94.84
9139;BME280;4604;48.616;9.548;2023-09-19T05:15:26;96687.41;;;17.36;94.79
9139;BME280;4604;48.616;9.548;2023-09-19T05:17:53;96685.38;;;17.38;93.87
9139;BME280;4604;48.616;9.548;2023-09-19T05:20:21;96706.25;;;17.49;93.20
9139;BME280;4604;48.616;9.548;2023-09-19T05:22:58;96707.72;;;17.52;92.80
9139;BME280;4604;48.616;9.548;2023-09-19T05:25:26;96715.78;;;17.59;92.32
9139;BME280;4604;48.616;9.548;2023-09-19T05:27:56;96705.13;;;17.59;91.13
9139;BME280;4604;48.616;9.548;2023-09-19T05:30:24;96715.41;;;17.62;90.84
9139;BME280;4604;48.616;9.548;2023-09-19T05:32:52;96713.81;;;17.67;90.82
9139;BME280;4604;48.616;9.548;2023-09-19T05:35:19;96716.13;;;17.70;90.09
9139;BME280;4604;48.616;9.548;2023-09-19T05:37:47;96723.75;;;17.73;89.44
9139;BME280;4604;48.616;9.548;2023-09-19T05:40:14;96720.59;;;17.85;89.35
9139;BME280;4604;48.616;9.548;2023-09-19T05:42:41;96719.59;;;17.86;90.07
9139;BME280;4604;48.616;9.548;2023-09-19T05:45:10;96736.06;;;17.74;90.80
9139;BME280;4604;48.616;9.548;2023-09-19T05:47:38;96724.97;;;17.71;91.15
9139;BME280;4604;48.616;9.548;2023-09-19T05:50:06;96737.22;;;17.80;92.82
9139;BME280;4604;48.616;9.548;2023-09-19T05:52:33;96742.06;;;17.76;93.32
9139;BME280;4604;48.616;9.548;2023-09-19T05:55:00;96735.50;;;17.79;94.03
9139;BME280;4604;48.616;9.548;2023-09-19T05:57:26;96744.72;;;17.76;95.37
9139;BME280;4604;48.616;9.548;2023-09-19T05:59:54;96742.53;;;17.65;97.47
9139;BME280;4604;48.616;9.548;2023-09-19T06:02:22;96752.34;;;17.58;99.29
9139;BME280;4604;48.616;9.548;2023-09-19T06:04:48;96759.69;;;17.56;100.00
9139;BME280;4604;48.616;9.548;2023-09-19T06:07:15;96762.84;;;17.45;100.00
9139;BME280;4604;48.616;9.548;2023-09-19T06:09:42;96774.81;;;17.49;100.00
9139;BME280;4604;48.616;9.548;2023-09-19T06:12:08;96768.63;;;17.33;100.00
9139;BME280;4604;48.616;9.548;2023-09-19T06:14:39;96763.41;;;17.25;100.00
9139;BME280;4604;48.616;9.548;2023-09-19T06:17:05;96775.09;;;17.24;100.00
9139;BME280;4604;48.616;9.548;2023-09-19T06:19:33;96768.19;;;17.30;100.00
9139;BME280;4604;48.616;9.548;2023-09-19T06:22:00;96773.34;;;17.17;100.00
9139;BME280;4604;48.616;9.548;2023-09-19T06:24:26;96784.91;;;17.24;100.00
9139;BME280;4604;48.616;9.548;2023-09-19T06:26:53;96792.84;;;17.17;100.00
9139;BME280;4604;48.616;9.548;2023-09-19T06:29:20;96808.00;;;17.02;100.00
9139;BME280;4604;48.616;9.548;2023-09-19T06:31:48;96808.25;;;16.92;100.00
9139;BME280;4604;48.616;9.548;2023-09-19T06:34:15;96793.31;;;16.68;100.00
9139;BME280;4604;48.616;9.548;2023-09-19T06:36:44;96802.41;;;16.59;100.00
9139;BME280;4604;48.616;9.548;2023-09-19T06:39:11;96812.25;;;16.58;100.00
9139;BME280;4604;48.616;9.548;2023-09-19T06:41:39;96812.00;;;16.45;100.00
9139;BME280;4604;48.616;9.548;2023-09-19T06:44:06;96804.94;;;16.52;100.00
9139;BME280;4604;48.616;9.548;2023-09-19T06:46:34;96823.44;;;16.54;100.00
9139;BME280;4604;48.616;9.548;2023-09-19T06:49:04;96833.09;;;16.32;100.00
9139;BME280;4604;48.616;9.548;2023-09-19T06:51:31;96830.81;;;16.20;100.00
9139;BME280;4604;48.616;9.548;2023-09-19T06:54:01;96823.19;;;16.17;100.00
9139;BME280;4604;48.616;9.548;2023-09-19T06:56:27;96826.84;;;16.16;100.00
9139;BME280;4604;48.616;9.548;2023-09-19T06:58:54;96845.84;;;16.13;100.00
9139;BME280;4604;48.616;9.548;2023-09-19T07:01:20;96856.72;;;16.03;100.00
9139;BME280;4604;48.616;9.548;2023-09-19T07:03:47;96851.25;;;15.97;100.00
9139;BME280;4604;48.616;9.548;2023-09-19T07:06:14;96851.75;;;16.00;100.00
9139;BME280;4604;48.616;9.548;2023-09-19T07:08:40;96851.66;;;15.86;100.00
9139;BME280;4604;48.616;9.548;2023-09-19T07:11:08;96854.66;;;15.82;100.00
9139;BME280;4604;48.616;9.548;2023-09-19T07:13:36;96852.53;;;15.78;100.00
9139;BME280;4604;48.616;9.548;2023-09-19T07:16:04;96861.28;;;15.87;100.00
9139;BME280;4604;48.616;9.548;2023-09-19T07:18:30;96853.66;;;15.83;100.00
9139;BME280;4604;48.616;9.548;2023-09-19T07:20:58;96868.59;;;15.93;100.00
9139;BME280;4604;48.616;9.548;2023-09-19T07:23:30;96876.66;;;16.08;100.00
9139;BME280;4604;48.616;9.548;2023-09-19T07:26:00;96852.56;;;16.01;100.00
9139;BME280;4604;48.616;9.548;2023-09-19T07:28:28;96868.50;;;16.09;100.00
9139;BME280;4604;48.616;9.548;2023-09-19T07:30:55;96878.59;;;16.22;100.00
9139;BME280;4604;48.616;9.548;2023-09-19T07:33:21;96881.78;;;16.40;100.00
9139;BME280;4604;48.616;9.548;2023-09-19T07:35:50;96880.06;;;16.47;100.00
9139;BME280;4604;48.616;9.548;2023-09-19T07:38:17;96881.75;;;16.48;100.00
9139;BME280;4604;48.616;9.548;2023-09-19T07:40:44;96879.19;;;16.55;100.00
9139;BME280;4604;48.616;9.548;2023-09-19T07:43:10;96874.09;;;16.68;100.00
9139;BME280;4604;48.616;9.548;2023-09-19T07:45:38;96877.28;;;16.87;100.00
9139;BME280;4604;48.616;9.548;2023-09-19T07:48:05;96873.47;;;17.04;100.00
9139;BME280;4604;48.616;9.548;2023-09-19T07:50:38;96870.47;;;17.22;100.00
9139;BME280;4604;48.616;9.548;2023-09-19T07:53:05;96879.84;;;17.33;100.00
9139;BME280;4604;48.616;9.548;2023-09-19T07:55:32;96887.03;;;17.18;100.00
9139;BME280;4604;48.616;9.548;2023-09-19T07:57:59;96872.94;;;17.09;100.00
9139;BME280;4604;48.616;9.548;2023-09-19T08:00:28;96893.00;;;17.20;100.00
9139;BME280;4604;48.616;9.548;2023-09-19T08:02:56;96895.50;;;17.36;100.00
9139;BME280;4604;48.616;9.548;2023-09-19T08:05:23;96889.88;;;17.46;100.00
9139;BME280;4604;48.616;9.548;2023-09-19T08:07:50;96890.53;;;17.48;100.00
9139;BME280;4604;48.616;9.548;2023-09-19T08:10:18;96880.06;;;17.46;100.00
9139;BME280;4604;48.616;9.548;2023-09-19T08:12:46;96897.44;;;17.57;100.00
9139;BME280;4604;48.616;9.548;2023-09-19T08:15:13;96872.06;;;17.61;100.00
9139;BME280;4604;48.616;9.548;2023-09-19T08:17:40;96893.19;;;17.77;100.00
9139;BME280;4604;48.616;9.548;2023-09-19T08:20:09;96899.41;;;17.93;100.00
9139;BME280;4604;48.616;9.548;2023-09-19T08:22:42;96905.09;;;18.05;100.00
9139;BME280;4604;48.616;9.548;2023-09-19T08:25:11;96910.06;;;18.08;100.00
9139;BME280;4604;48.616;9.548;2023-09-19T08:27:38;96919.38;;;18.12;100.00
9139;BME280;4604;48.616;9.548;2023-09-19T08:30:05;96909.28;;;18.14;100.00
9139;BME280;4604;48.616;9.548;2023-09-19T08:32:32;96906.34;;;18.09;100.00
9139;BME280;4604;48.616;9.548;2023-09-19T08:34:58;96910.16;;;18.14;100.00
9139;BME280;4604;48.616;9.548;2023-09-19T08:37:27;96916.66;;;18.27;100.00
9139;BME280;4604;48.616;9.548;2023-09-19T08:39:54;96921.06;;;18.34;100.00
9139;BME280;4604;48.616;9.548;2023-09-19T08:42:20;96924.66;;;18.27;100.00
9139;BME280;4604;48.616;9.548;2023-09-19T08:44:49;96918.47;;;18.41;100.00
9139;BME280;4604;48.616;9.548;2023-09-19T08:47:24;96917.63;;;18.40;100.00
9139;BME280;4604;48.616;9.548;2023-09-19T08:50:01;96920.44;;;18.54;100.00
9139;BME280;4604;48.616;9.548;2023-09-19T08:52:37;96921.56;;;18.45;100.00
9139;BME280;4604;48.616;9.548;2023-09-19T08:55:07;96922.91;;;18.55;100.00
9139;BME280;4604;48.616;9.548;2023-09-19T08:57:38;96919.13;;;18.28;100.00
9139;BME280;4604;48.616;9.548;2023-09-19T09:00:08;96918.09;;;18.44;97.89
9139;BME280;4604;48.616;9.548;2023-09-19T09:02:37;96912.47;;;18.39;100.00
9139;BME280;4604;48.616;9.548;2023-09-19T09:05:06;96926.28;;;18.43;97.83
9139;BME280;4604;48.616;9.548;2023-09-19T09:07:36;96919.09;;;18.65;98.75
9139;BME280;4604;48.616;9.548;2023-09-19T09:10:04;96934.50;;;18.63;89.58
9139;BME280;4604;48.616;9.548;2023-09-19T09:12:31;96940.84;;;18.40;82.90
9139;BME280;4604;48.616;9.548;2023-09-19T09:14:58;96937.03;;;18.49;83.95
9139;BME280;4604;48.616;9.548;2023-09-19T09:17:24;96930.34;;;18.38;84.99
9139;BME280;4604;48.616;9.548;2023-09-19T09:19:52;96938.44;;;18.45;84.81
9139;BME280;4604;48.616;9.548;2023-09-19T09:22:19;96935.03;;;18.51;84.02
9139;BME280;4604;48.616;9.548;2023-09-19T09:24:55;96941.22;;;18.37;86.30
9139;BME280;4604;48.616;9.548;2023-09-19T09:27:23;96930.09;;;18.55;88.42
9139;BME280;4604;48.616;9.548;2023-09-19T09:29:51;96936.34;;;18.62;86.77
9139;BME280;4604;48.616;9.548;2023-09-19T09:32:20;96947.53;;;18.87;89.21
9139;BME280;4604;48.616;9.548;2023-09-19T09:34:50;96945.53;;;18.74;85.73
9139;BME280;4604;48.616;9.548;2023-09-19T09:37:17;96935.59;;;18.83;87.12
9139;BME280;4604;48.616;9.548;2023-09-19T09:39:49;96948.28;;;19.24;82.48
9139;BME280;4604;48.616;9.548;2023-09-19T09:42:30;96941.19;;;19.10;82.48
9139;BME280;4604;48.616;9.548;2023-09-19T09:45:14;96954.31;;;19.33;82.71
9139;BME280;4604;48.616;9.548;2023-09-19T09:47:45;96940.38;;;19.16;77.53
9139;BME280;4604;48.616;9.548;2023-09-19T09:50:25;96944.34;;;19.20;78.52
9139;BME280;4604;48.616;9.548;2023-09-19T09:52:55;96949.00;;;18.90;77.00
9139;BME280;4604;48.616;9.548;2023-09-19T09:55:28;96955.88;;;18.99;79.25
9139;BME280;4604;48.616;9.548;2023-09-19T09:58:17;96946.03;;;18.78;75.78
9139;BME280;4604;48.616;9.548;2023-09-19T10:00:55;96941.34;;;18.87;76.59
9139;BME280;4604;48.616;9.548;2023-09-19T10:03:31;96942.44;;;19.14;76.81
9139;BME280;4604;48.616;9.548;2023-09-19T10:06:00;96950.66;;;19.40;75.91
9139;BME280;4604;48.616;9.548;2023-09-19T10:08:34;96948.78;;;19.34;74.69
9139;BME280;4604;48.616;9.548;2023-09-19T10:11:15;96935.88;;;19.73;75.69
9139;BME280;4604;48.616;9.548;2023-09-19T10:13:43;96954.75;;;19.64;72.96
9139;BME280;4604;48.616;9.548;2023-09-19T10:16:13;96943.88;;;19.66;72.27
9139;BME280;4604;48.616;9.548;2023-09-19T10:18:44;96947.88;;;19.77;73.09
9139;BME280;4604;48.616;9.548;2023-09-19T10:21:12;96943.78;;;19.81;72.84
9139;BME280;4604;48.616;9.548;2023-09-19T10:23:40;96943.13;;;19.51;72.29
9139;BME280;4604;48.616;9.548;2023-09-19T10:26:10;96942.41;;;19.63;72.79
9139;BME280;4604;48.616;9.548;2023-09-19T10:28:37;96941.97;;;19.88;72.69
9139;BME280;4604;48.616;9.548;2023-09-19T10:31:06;96946.13;;;19.97;70.20
9139;BME280;4604;48.616;9.548;2023-09-19T10:33:36;96940.69;;;19.84;68.70
9139;BME280;4604;48.616;9.548;2023-09-19T10:36:04;96939.47;;;19.86;66.73
9139;BME280;4604;48.616;9.548;2023-09-19T10:38:33;96935.06;;;20.07;66.64
9139;BME280;4604;48.616;9.548;2023-09-19T10:41:01;96934.66;;;20.10;67.64
9139;BME280;4604;48.616;9.548;2023-09-19T10:43:30;96919.53;;;19.96;66.35
9139;BME280;4604;48.616;9.548;2023-09-19T10:46:01;96927.31;;;19.84;67.32
9139;BME280;4604;48.616;9.548;2023-09-19T10:48:30;96922.63;;;19.99;66.86
9139;BME280;4604;48.616;9.548;2023-09-19T10:51:02;96922.97;;;20.31;64.88
9139;BME280;4604;48.616;9.548;2023-09-19T10:53:41;96923.22;;;20.43;64.37
9139;BME280;4604;48.616;9.548;2023-09-19T10:56:09;96933.44;;;20.67;64.55
9139;BME280;4604;48.616;9.548;2023-09-19T10:58:42;96921.63;;;20.55;62.71
9139;BME280;4604;48.616;9.548;2023-09-19T11:01:10;96935.53;;;20.85;60.88
9139;BME280;4604;48.616;9.548;2023-09-19T11:03:40;96928.09;;;20.94;61.13
9139;BME280;4604;48.616;9.548;2023-09-19T11:06:11;96934.28;;;20.81;58.57
9139;BME280;4604;48.616;9.548;2023-09-19T11:08:59;96927.72;;;20.97;59.13
9139;BME280;4604;48.616;9.548;2023-09-19T11:11:49;96913.63;;;20.68;58.63
9139;BME280;4604;48.616;9.548;2023-09-19T11:14:30;96903.53;;;20.84;55.54
9139;BME280;4604;48.616;9.548;2023-09-19T11:20:31;96923.16;;;20.91;55.23
9139;BME280;4604;48.616;9.548;2023-09-19T11:23:18;96925.44;;;21.01;55.01
9139;BME280;4604;48.616;9.548;2023-09-19T11:25:49;96925.66;;;21.12;53.93
9139;BME280;4604;48.616;9.548;2023-09-19T11:28:30;96918.22;;;21.01;54.02
9139;BME280;4604;48.616;9.548;2023-09-19T11:30:57;96916.94;;;20.77;54.02
9139;BME280;4604;48.616;9.548;2023-09-19T11:33:25;96923.34;;;20.76;53.41
9139;BME280;4604;48.616;9.548;2023-09-19T11:36:03;96915.50;;;20.68;54.31
9139;BME280;4604;48.616;9.548;2023-09-19T11:38:58;96914.69;;;20.81;55.99
9139;BME280;4604;48.616;9.548;2023-09-19T11:41:39;96925.66;;;21.46;54.84
9139;BME280;4604;48.616;9.548;2023-09-19T11:44:31;96911.22;;;21.27;53.48
9139;BME280;4604;48.616;9.548;2023-09-19T11:47:00;96900.03;;;21.16;54.16
9139;BME280;4604;48.616;9.548;2023-09-19T11:49:30;96911.19;;;20.93;54.06
9139;BME280;4604;48.616;9.548;2023-09-19T11:52:00;96910.16;;;21.21;55.13
9139;BME280;4604;48.616;9.548;2023-09-19T11:54:31;96904.38;;;21.31;54.78
9139;BME280;4604;48.616;9.548;2023-09-19T11:56:58;96914.50;;;21.35;53.55
9139;BME280;4604;48.616;9.548;2023-09-19T11:59:26;96897.56;;;21.48;53.08
9139;BME280;4604;48.616;9.548;2023-09-19T12:01:54;96895.28;;;21.25;53.38
9139;BME280;4604;48.616;9.548;2023-09-19T12:04:33;96898.59;;;20.94;54.39
9139;BME280;4604;48.616;9.548;2023-09-19T12:07:05;96900.25;;;20.88;55.81
9139;BME280;4604;48.616;9.548;2023-09-19T12:09:38;96891.56;;;21.06;56.16
9139;BME280;4604;48.616;9.548;2023-09-19T12:12:05;96878.16;;;21.13;55.21
9139;BME280;4604;48.616;9.548;2023-09-19T12:14:32;96892.59;;;21.58;53.37
9139;BME280;4604;48.616;9.548;2023-09-19T12:16:59;96880.81;;;21.33;53.06
9139;BME280;4604;48.616;9.548;2023-09-19T12:19:27;96878.25;;;21.91;53.33
9139;BME280;4604;48.616;9.548;2023-09-19T12:21:55;96877.53;;;22.09;50.04
9139;BME280;4604;48.616;9.548;2023-09-19T12:24:25;96879.41;;;22.09;49.89
9139;BME280;4604;48.616;9.548;2023-09-19T12:27:00;96847.06;;;21.90;50.12
9139;BME280;4604;48.616;9.548;2023-09-19T12:29:30;96867.84;;;22.53;49.26
9139;BME280;4604;48.616;9.548;2023-09-19T12:31:58;96858.72;;;22.22;47.89
9139;BME280;4604;48.616;9.548;2023-09-19T12:34:29;96864.78;;;22.05;48.17
9139;BME280;4604;48.616;9.548;2023-09-19T12:37:07;96861.31;;;21.84;48.65
9139;BME280;4604;48.616;9.548;2023-09-19T12:39:40;96874.38;;;21.67;50.15
9139;BME280;4604;48.616;9.548;2023-09-19T12:42:09;96868.84;;;22.14;50.36
9139;BME280;4604;48.616;9.548;2023-09-19T12:44:37;96847.50;;;22.32;49.84
9139;BME280;4604;48.616;9.548;2023-09-19T12:47:15;96856.16;;;22.34;49.82
9139;BME280;4604;48.616;9.548;2023-09-19T12:50:04;96879.59;;;22.27;49.06
9139;BME280;4604;48.616;9.548;2023-09-19T12:52:36;96861.22;;;22.04;49.23
9139;BME280;4604;48.616;9.548;2023-09-19T12:55:04;96856.97;;;21.90;50.03
9139;BME280;4604;48.616;9.548;2023-09-19T12:57:32;96868.91;;;22.07;50.40
9139;BME280;4604;48.616;9.548;2023-09-19T13:00:00;96867.72;;;21.90;50.43
9139;BME280;4604;48.616;9.548;2023-09-19T13:02:26;96869.63;;;21.69;51.38
9139;BME280;4604;48.616;9.548;2023-09-19T13:04:54;96860.47;;;21.90;51.08
9139;BME280;4604;48.616;9.548;2023-09-19T13:07:41;96850.13;;;21.87;50.40
9139;BME280;4604;48.616;9.548;2023-09-19T13:10:13;96854.16;;;22.16;49.56
9139;BME280;4604;48.616;9.548;2023-09-19T13:12:43;96857.53;;;21.98;48.70
9139;BME280;4604;48.616;9.548;2023-09-19T13:15:14;96828.06;;;21.78;49.39
9139;BME280;4604;48.616;9.548;2023-09-19T13:17:44;96851.09;;;22.06;49.61
9139;BME280;4604;48.616;9.548;2023-09-19T13:20:21;96847.50;;;22.26;48.99
9139;BME280;4604;48.616;9.548;2023-09-19T13:22:53;96840.94;;;22.21;48.52
9139;BME280;4604;48.616;9.548;2023-09-19T13:25:25;96838.59;;;22.32;48.00
9139;BME280;4604;48.616;9.548;2023-09-19T13:27:56;96839.28;;;22.14;48.71
9139;BME280;4604;48.616;9.548;2023-09-19T13:30:26;96822.25;;;21.88;48.73
9139;BME280;4604;48.616;9.548;2023-09-19T13:33:04;96831.22;;;22.20;49.74
9139;BME280;4604;48.616;9.548;2023-09-19T13:35:32;96823.72;;;22.61;47.68
9139;BME280;4604;48.616;9.548;2023-09-19T13:37:59;96830.44;;;22.45;47.27